Airfield :







YOU CAN JOIN US ON...

 
LOGIN :

Register | Disclaimer

   EN    FR    IT 

 









Legend :    VFR   Marginal VFR   IFR   Intensive IFR   Very Intensive IFR
Visi :
Ceiling :
>= 8 km
>= 3000ft
5 to 8 km
1000 to 3000 ft
1500m to 5 km
500 to 1000 ft
800 to 1500m
200 to 500 ft
< 800m
< 200 ft
Symbols :   Thunderstorms  Fog  Heavy snow  Heavy precipitations  Wind > 20 kt






- Airport Elevation : 160 ft
- IATA code : YYR


CYYR - Goose Bay

CURRENT METAR :
  • 271200Z 36008KT 15SM FEW040 FEW250 FEW270 08/M03 A3025 RMK CU1CC1CI1 SLP246

EXPIRED METARs :
  • 271100Z 29007KT 15SM FEW030 FEW040 FEW270 06/M03 A3026 RMK CU1SC1CI1 SLP249
  • 271000Z 29005KT 15SM FEW040 FEW100 FEW270 05/M01 A3024 RMK SC2AC1CI1 SLP244

TAF TAF CYYR
Valid from the 27 at 12:00 until the 28 at 12:00 UTC


271130Z 2712/2812 28008KT P6SM FEW030 FEW280
FM271500 24005KT P6SM SCT025 BKN220
FM272000 20008KT P6SM FEW020 BKN120
FM280200 VRB03KT P6SM -RA SCT015 OVC025
FM280800 24005KT 6SM -RA BR OVC015 RMK NXT FCST BY 271800Z
CZQX FIR / North America



MET'MAP, your aeronautical weather chart ! - Copyright ORBIFLY December 2007 - Disclaimer

ORBIFLY MET'MAP TEAM :

Programming & Development : Alexandra Zaïnal
Concept & original design : Baudouin d'Aumeries
Assistance for programming : Marc-Olivier Méhu
Technical & hardware support : Manuel Goepfert

Contact : metmap@orbifly.com




SOURCES & CREDITS :

   NOAA